createdAt,value
2022-09-26T00:00:28.297Z,0.00
2022-09-26T00:01:28.447Z,0.00
2022-09-26T00:02:28.363Z,0.00
2022-09-26T00:03:28.308Z,0.00
2022-09-26T00:04:32.573Z,0.00
2022-09-26T00:05:28.290Z,0.00
2022-09-26T00:06:28.301Z,0.00
2022-09-26T00:07:28.306Z,0.00
2022-09-26T00:08:28.306Z,0.00
2022-09-26T00:09:28.274Z,0.00
2022-09-26T00:10:28.278Z,0.00
2022-09-26T00:11:28.271Z,0.00
2022-09-26T00:12:28.267Z,0.00
2022-09-26T00:13:28.271Z,0.00
2022-09-26T00:14:28.251Z,0.00
2022-09-26T00:15:28.264Z,0.00
2022-09-26T00:16:28.295Z,0.00
2022-09-26T00:17:28.272Z,0.00
2022-09-26T00:18:28.248Z,0.00
2022-09-26T00:19:28.248Z,0.00
2022-09-26T00:20:28.244Z,0.00
2022-09-26T00:21:28.241Z,0.00
2022-09-26T00:22:28.249Z,0.00
2022-09-26T00:23:28.245Z,0.00
2022-09-26T00:24:28.261Z,0.00
2022-09-26T00:25:28.247Z,0.00
2022-09-26T00:26:28.221Z,0.00
2022-09-26T00:27:28.220Z,0.00
2022-09-26T00:28:28.225Z,0.00
2022-09-26T00:29:28.220Z,0.00
2022-09-26T00:30:28.265Z,0.00
2022-09-26T00:31:28.213Z,0.00
2022-09-26T00:32:28.215Z,0.00
2022-09-26T00:33:28.200Z,0.00
2022-09-26T00:34:28.200Z,0.00
2022-09-26T00:35:28.210Z,0.00
2022-09-26T00:36:37.461Z,0.00
2022-09-26T00:37:28.203Z,0.00
2022-09-26T00:38:28.194Z,0.00
2022-09-26T00:39:28.193Z,0.00
2022-09-26T00:40:28.375Z,0.00
2022-09-26T00:41:28.191Z,0.00
2022-09-26T00:42:28.178Z,0.00
2022-09-26T00:43:28.175Z,0.00
2022-09-26T00:44:28.179Z,0.00
2022-09-26T00:45:28.174Z,0.00
2022-09-26T00:46:28.240Z,0.00
2022-09-26T00:47:28.168Z,0.00
2022-09-26T00:48:28.163Z,0.00
2022-09-26T00:49:28.170Z,0.00
2022-09-26T00:50:28.155Z,0.00
2022-09-26T00:51:28.165Z,0.00
2022-09-26T00:52:28.159Z,0.00
2022-09-26T00:53:28.148Z,0.00
2022-09-26T00:54:28.141Z,0.00
2022-09-26T00:55:28.148Z,0.00
2022-09-26T00:56:28.174Z,0.00
2022-09-26T00:57:28.142Z,0.00
2022-09-26T00:58:28.131Z,0.00
2022-09-26T00:59:28.128Z,0.00
2022-09-26T01:00:28.141Z,0.00
2022-09-26T01:01:28.297Z,0.00
2022-09-26T01:02:28.238Z,0.00
2022-09-26T01:03:28.124Z,0.00
2022-09-26T01:04:28.118Z,0.00
2022-09-26T01:05:28.116Z,0.00
2022-09-26T01:06:28.122Z,0.00
2022-09-26T01:07:28.133Z,0.00
2022-09-26T01:08:28.099Z,0.00
2022-09-26T01:09:28.096Z,0.00
2022-09-26T01:10:28.092Z,0.00
2022-09-26T01:11:28.095Z,0.00
2022-09-26T01:12:28.115Z,0.00
2022-09-26T01:13:28.082Z,0.00
2022-09-26T01:14:28.085Z,0.00
2022-09-26T01:15:28.092Z,0.00
2022-09-26T01:16:28.168Z,0.00
2022-09-26T01:17:28.080Z,0.00
2022-09-26T01:18:28.083Z,0.00
2022-09-26T01:19:28.093Z,0.00
2022-09-26T01:20:28.081Z,0.00
2022-09-26T01:21:28.059Z,0.00
2022-09-26T01:22:28.065Z,0.00
2022-09-26T01:23:28.054Z,0.00
2022-09-26T01:24:28.062Z,0.00
2022-09-26T01:25:28.053Z,0.00
2022-09-26T01:26:28.057Z,0.00
2022-09-26T01:27:28.057Z,0.00
2022-09-26T01:28:28.061Z,0.00
2022-09-26T01:29:28.054Z,0.00
2022-09-26T01:30:28.196Z,0.00
2022-09-26T01:31:28.040Z,0.00
2022-09-26T01:32:28.035Z,0.00
2022-09-26T01:33:28.037Z,0.00
2022-09-26T01:34:28.042Z,0.00
2022-09-26T01:35:28.023Z,0.00
2022-09-26T01:36:28.022Z,0.00
2022-09-26T01:37:28.011Z,0.00
2022-09-26T01:38:28.031Z,0.00
2022-09-26T01:39:28.021Z,0.00
2022-09-26T01:40:28.027Z,0.00
2022-09-26T01:41:28.003Z,0.00
2022-09-26T01:42:28.006Z,0.00
2022-09-26T01:43:28.003Z,0.00
2022-09-26T01:44:28.117Z,0.00
2022-09-26T01:45:28.002Z,0.00
2022-09-26T01:46:28.102Z,0.00
2022-09-26T01:47:27.992Z,0.00
2022-09-26T01:48:27.990Z,0.00
2022-09-26T01:49:27.991Z,0.00
2022-09-26T01:50:27.987Z,0.00
2022-09-26T01:51:27.976Z,0.00
2022-09-26T01:52:27.978Z,0.00
2022-09-26T01:53:27.986Z,0.00
2022-09-26T01:54:27.977Z,0.00
2022-09-26T01:55:27.979Z,0.00
2022-09-26T01:56:27.971Z,0.00
2022-09-26T01:57:27.962Z,0.00
2022-09-26T01:58:27.964Z,0.00
2022-09-26T01:59:27.974Z,0.00
2022-09-26T02:00:28.059Z,0.00
2022-09-26T02:01:28.009Z,0.00
2022-09-26T02:02:28.036Z,0.00
2022-09-26T02:03:27.948Z,0.00
2022-09-26T02:04:27.939Z,0.00
2022-09-26T02:05:27.935Z,0.00
2022-09-26T02:06:28.088Z,0.00
2022-09-26T02:07:27.932Z,0.00
2022-09-26T02:08:27.939Z,0.00
2022-09-26T02:09:27.927Z,0.00
2022-09-26T02:10:27.949Z,0.00
2022-09-26T02:11:27.918Z,0.00
2022-09-26T02:12:27.921Z,0.00
2022-09-26T02:13:27.908Z,0.00
2022-09-26T02:14:27.917Z,0.00
2022-09-26T02:16:10.243Z,0.00
2022-09-26T02:17:10.134Z,0.00
2022-09-26T02:18:10.134Z,0.00
2022-09-26T02:19:10.122Z,0.00
2022-09-26T02:20:10.140Z,0.00
2022-09-26T02:21:10.220Z,0.00
2022-09-26T02:22:10.112Z,0.00
2022-09-26T02:23:10.123Z,0.00
2022-09-26T02:24:10.107Z,0.00
2022-09-26T02:25:10.128Z,0.00
2022-09-26T02:26:10.091Z,0.00
2022-09-26T02:27:10.099Z,0.00
2022-09-26T02:28:10.098Z,0.00
2022-09-26T02:29:10.089Z,0.00
2022-09-26T02:30:10.100Z,0.00
2022-09-26T02:31:10.087Z,0.00
2022-09-26T02:32:10.159Z,0.00
2022-09-26T02:33:10.091Z,0.00
2022-09-26T02:34:10.091Z,0.00
2022-09-26T02:35:52.645Z,0.00
2022-09-26T02:36:52.635Z,0.00
2022-09-26T02:37:52.639Z,0.00
2022-09-26T02:38:52.635Z,0.00
2022-09-26T02:39:52.633Z,0.00
2022-09-26T02:40:52.710Z,0.00
2022-09-26T02:41:52.637Z,0.00
2022-09-26T02:42:52.623Z,0.00
2022-09-26T02:43:52.623Z,0.00
2022-09-26T02:44:52.614Z,0.00
2022-09-26T02:45:52.680Z,0.00
2022-09-26T02:46:52.626Z,0.00
2022-09-26T02:47:52.650Z,0.00
2022-09-26T02:48:52.607Z,0.00
2022-09-26T02:49:52.607Z,0.00
2022-09-26T02:50:52.608Z,0.00
2022-09-26T02:51:52.605Z,0.00
2022-09-26T02:52:52.605Z,0.00
2022-09-26T02:53:52.598Z,0.00
2022-09-26T02:54:52.591Z,0.00
2022-09-26T02:55:52.589Z,0.00
2022-09-26T02:56:52.582Z,0.00
2022-09-26T02:57:52.584Z,0.00
2022-09-26T02:58:52.590Z,0.00
2022-09-26T02:59:52.595Z,0.00
2022-09-26T03:00:52.659Z,0.00
2022-09-26T03:01:52.576Z,0.00
2022-09-26T03:02:52.576Z,0.00
2022-09-26T03:03:52.585Z,0.00
2022-09-26T03:04:52.662Z,0.00
2022-09-26T03:05:52.557Z,0.00
2022-09-26T03:06:52.585Z,0.00
2022-09-26T03:07:52.561Z,0.00
2022-09-26T03:08:52.547Z,0.00
2022-09-26T03:09:52.541Z,0.00
2022-09-26T03:10:52.544Z,0.00
2022-09-26T03:11:52.539Z,0.00
2022-09-26T03:12:52.539Z,0.00
2022-09-26T03:13:52.550Z,0.00
2022-09-26T03:14:57.885Z,0.00
2022-09-26T03:15:52.523Z,0.00
2022-09-26T03:16:52.590Z,0.00
2022-09-26T03:17:52.525Z,0.00
2022-09-26T03:18:52.521Z,0.00
2022-09-26T03:19:52.545Z,0.00
2022-09-26T03:20:52.509Z,0.00
2022-09-26T03:21:52.515Z,0.00
2022-09-26T03:22:52.514Z,0.00
2022-09-26T03:23:52.516Z,0.00
2022-09-26T03:24:52.524Z,0.00
2022-09-26T03:25:52.504Z,0.00
2022-09-26T03:26:52.491Z,0.00
2022-09-26T03:27:52.494Z,0.00
2022-09-26T03:28:52.493Z,0.00
2022-09-26T03:29:52.496Z,0.00
2022-09-26T03:30:52.478Z,0.00
2022-09-26T03:31:52.545Z,0.00
2022-09-26T03:32:52.482Z,0.00
2022-09-26T03:33:52.488Z,0.00
2022-09-26T03:34:52.476Z,0.00
2022-09-26T03:35:52.490Z,0.00
2022-09-26T03:36:52.461Z,0.00
2022-09-26T03:37:52.477Z,0.00
2022-09-26T03:38:52.457Z,0.00
2022-09-26T03:39:52.472Z,0.00
2022-09-26T03:40:52.579Z,0.00
2022-09-26T03:41:52.453Z,0.00
2022-09-26T03:42:52.449Z,0.00
2022-09-26T03:43:52.452Z,0.00
2022-09-26T03:44:52.463Z,0.00
2022-09-26T03:45:52.523Z,0.00
2022-09-26T03:46:52.440Z,0.00
2022-09-26T03:47:52.447Z,0.00
2022-09-26T03:48:52.423Z,0.00
2022-09-26T03:49:52.428Z,0.00
2022-09-26T03:50:52.416Z,0.00
2022-09-26T03:51:52.517Z,0.00
2022-09-26T03:52:52.413Z,0.00
2022-09-26T03:53:52.422Z,0.00
2022-09-26T03:54:52.423Z,0.00
2022-09-26T03:55:52.413Z,0.00
2022-09-26T03:56:52.424Z,0.00
2022-09-26T03:57:52.403Z,0.00
2022-09-26T03:58:52.405Z,0.00
2022-09-26T03:59:52.396Z,0.00
2022-09-26T04:00:52.487Z,0.00
2022-09-26T04:01:52.486Z,0.00
2022-09-26T04:02:52.382Z,0.00
2022-09-26T04:03:52.386Z,0.00
2022-09-26T04:04:52.381Z,0.00
2022-09-26T04:05:52.391Z,0.00
2022-09-26T04:06:52.374Z,0.00
2022-09-26T04:07:52.397Z,0.00
2022-09-26T04:08:52.379Z,0.00
2022-09-26T04:09:52.370Z,0.00
2022-09-26T04:10:52.365Z,0.00
2022-09-26T04:11:52.514Z,0.00
2022-09-26T04:12:52.361Z,0.00
2022-09-26T04:13:53.768Z,0.00
2022-09-26T04:14:52.349Z,0.00
2022-09-26T04:15:52.357Z,0.00
2022-09-26T04:16:52.594Z,0.00
2022-09-26T04:17:52.357Z,0.00
2022-09-26T04:18:52.346Z,0.00
2022-09-26T04:19:52.331Z,0.00
2022-09-26T04:20:52.364Z,0.00
2022-09-26T04:21:52.337Z,0.00
2022-09-26T04:22:52.339Z,0.00
2022-09-26T04:23:52.348Z,0.00
2022-09-26T04:24:52.317Z,0.00
2022-09-26T04:25:52.321Z,0.00
2022-09-26T04:26:52.343Z,0.00
2022-09-26T04:27:52.315Z,0.00
2022-09-26T04:28:52.404Z,0.00
2022-09-26T04:29:52.301Z,0.00
2022-09-26T04:30:52.317Z,0.00
2022-09-26T04:31:52.428Z,0.00
2022-09-26T04:32:52.348Z,0.00
2022-09-26T04:33:52.303Z,0.00
2022-09-26T04:34:52.287Z,0.00
2022-09-26T04:35:52.285Z,0.00
2022-09-26T04:36:52.290Z,0.00
2022-09-26T04:37:52.298Z,0.00
2022-09-26T04:38:52.278Z,0.00
2022-09-26T04:39:52.305Z,0.00
2022-09-26T04:40:52.344Z,0.00
2022-09-26T04:41:52.280Z,0.00
2022-09-26T04:42:52.270Z,0.00
2022-09-26T04:43:52.265Z,0.00
2022-09-26T04:44:52.268Z,0.00
2022-09-26T04:45:52.315Z,0.00
2022-09-26T04:46:52.255Z,0.00
2022-09-26T04:47:52.249Z,0.00
2022-09-26T04:48:52.255Z,0.00
2022-09-26T04:49:52.245Z,0.00
2022-09-26T04:50:52.252Z,0.00
2022-09-26T04:51:52.238Z,0.00
2022-09-26T04:52:52.234Z,0.00
2022-09-26T04:53:52.238Z,0.00
2022-09-26T04:54:52.241Z,0.00
2022-09-26T04:55:52.247Z,0.00
2022-09-26T04:56:52.235Z,0.00
2022-09-26T04:57:52.230Z,0.00
2022-09-26T04:58:52.228Z,0.00
2022-09-26T04:59:52.219Z,0.00
2022-09-26T05:00:52.316Z,0.00
2022-09-26T05:01:52.250Z,0.00
2022-09-26T05:02:52.212Z,0.00
2022-09-26T05:03:52.208Z,0.00
2022-09-26T05:04:52.210Z,0.00
2022-09-26T05:05:52.209Z,0.00
2022-09-26T05:06:52.205Z,0.00
2022-09-26T05:07:52.199Z,0.00
2022-09-26T05:08:52.203Z,0.00
2022-09-26T05:09:52.189Z,0.00
2022-09-26T05:10:52.191Z,0.00
2022-09-26T05:11:52.228Z,0.00
2022-09-26T05:12:52.180Z,0.00
2022-09-26T05:13:54.094Z,4.00
2022-09-26T05:14:52.185Z,4.00
2022-09-26T05:15:52.213Z,0.00
2022-09-26T05:16:52.233Z,4.00
2022-09-26T05:17:52.174Z,0.00
2022-09-26T05:18:52.194Z,4.00
2022-09-26T05:19:52.163Z,4.00
2022-09-26T05:20:52.162Z,4.00
2022-09-26T05:21:52.163Z,4.00
2022-09-26T05:22:52.199Z,8.00
2022-09-26T05:23:52.153Z,8.00
2022-09-26T05:24:52.144Z,4.00
2022-09-26T05:25:52.144Z,8.00
2022-09-26T05:26:52.141Z,8.00
2022-09-26T05:27:52.151Z,12.00
2022-09-26T05:28:52.131Z,12.00
2022-09-26T05:29:52.146Z,8.00
2022-09-26T05:30:52.133Z,12.00
2022-09-26T05:31:52.223Z,12.00
2022-09-26T05:32:52.134Z,12.00
2022-09-26T05:33:52.122Z,12.00
2022-09-26T05:34:52.121Z,12.00
2022-09-26T05:35:52.111Z,16.00
2022-09-26T05:36:52.110Z,12.00
2022-09-26T05:37:52.116Z,16.00
2022-09-26T05:38:52.105Z,16.00
2022-09-26T05:39:52.097Z,20.00
2022-09-26T05:40:52.212Z,20.00
2022-09-26T05:41:52.093Z,16.00
2022-09-26T05:42:52.122Z,16.00
2022-09-26T05:43:52.107Z,20.00
2022-09-26T05:44:52.104Z,20.00
2022-09-26T05:45:52.079Z,20.00
2022-09-26T05:46:52.168Z,24.00
2022-09-26T05:47:52.081Z,20.00
2022-09-26T05:48:52.075Z,24.00
2022-09-26T05:49:52.071Z,24.00
2022-09-26T05:50:52.093Z,24.00
2022-09-26T05:51:52.075Z,28.00
2022-09-26T05:52:52.070Z,28.00
2022-09-26T05:53:52.061Z,24.00
2022-09-26T05:54:52.068Z,28.00
2022-09-26T05:55:52.054Z,24.00
2022-09-26T05:56:52.056Z,28.00
2022-09-26T05:57:52.053Z,32.00
2022-09-26T05:58:52.048Z,36.00
2022-09-26T05:59:52.076Z,40.00
2022-09-26T06:00:52.122Z,44.00
2022-09-26T06:01:52.150Z,44.00
2022-09-26T06:02:52.050Z,48.00
2022-09-26T06:03:52.053Z,48.00
2022-09-26T06:04:52.043Z,52.00
2022-09-26T06:05:52.038Z,52.00
2022-09-26T06:06:52.076Z,56.00
2022-09-26T06:07:52.030Z,56.00
2022-09-26T06:08:52.026Z,60.00
2022-09-26T06:09:52.033Z,60.00
2022-09-26T06:10:52.026Z,60.00
2022-09-26T06:11:52.040Z,68.00
2022-09-26T06:12:52.148Z,64.00
2022-09-26T06:13:52.034Z,68.00
2022-09-26T06:14:52.006Z,68.00
2022-09-26T06:17:06.660Z,72.00
2022-09-26T06:18:06.648Z,80.00
2022-09-26T06:19:06.783Z,80.00
2022-09-26T06:20:06.631Z,88.00
2022-09-26T06:21:06.636Z,100.00
2022-09-26T06:22:06.628Z,112.00
2022-09-26T06:23:06.637Z,124.00
2022-09-26T06:24:06.635Z,136.00
2022-09-26T06:25:06.632Z,148.00
2022-09-26T06:26:06.626Z,156.00
2022-09-26T06:27:06.617Z,160.00
2022-09-26T06:28:06.622Z,168.00
2022-09-26T06:29:06.709Z,172.00
2022-09-26T06:30:52.494Z,188.00
2022-09-26T06:31:52.523Z,196.00
2022-09-26T06:32:52.508Z,204.00
2022-09-26T06:33:52.488Z,208.00
2022-09-26T06:34:52.487Z,216.00
2022-09-26T06:35:52.484Z,228.00
2022-09-26T06:36:52.488Z,236.00
2022-09-26T06:37:52.473Z,240.00
2022-09-26T06:38:52.471Z,252.00
2022-09-26T06:39:56.998Z,260.00
2022-09-26T06:40:52.482Z,264.00
2022-09-26T06:41:52.457Z,268.00
2022-09-26T06:42:52.479Z,272.00
2022-09-26T06:43:52.462Z,280.00
2022-09-26T06:44:52.458Z,284.00
2022-09-26T06:45:52.460Z,260.00
2022-09-26T06:46:52.505Z,260.00
2022-09-26T06:47:52.449Z,296.00
2022-09-26T06:48:52.566Z,308.00
2022-09-26T06:49:52.438Z,312.00
2022-09-26T06:50:52.440Z,304.00
2022-09-26T06:51:52.438Z,304.00
2022-09-26T06:52:52.445Z,304.00
2022-09-26T06:53:52.425Z,308.00
2022-09-26T06:54:52.431Z,312.00
2022-09-26T06:55:52.433Z,320.00
2022-09-26T06:56:52.423Z,336.00
2022-09-26T06:57:52.435Z,344.00
2022-09-26T06:58:52.417Z,348.00
2022-09-26T06:59:52.421Z,340.00
2022-09-26T07:00:52.533Z,332.00
2022-09-26T07:01:52.550Z,316.00
2022-09-26T07:02:52.407Z,300.00
2022-09-26T07:03:54.340Z,288.00
2022-09-26T07:04:52.457Z,276.00
2022-09-26T07:05:52.417Z,272.00
2022-09-26T07:06:52.405Z,260.00
2022-09-26T07:07:52.407Z,240.00
2022-09-26T07:09:12.077Z,224.00
2022-09-26T07:09:52.403Z,216.00
2022-09-26T07:10:52.397Z,204.00
2022-09-26T07:12:13.538Z,196.00
2022-09-26T07:12:52.394Z,184.00
2022-09-26T07:13:52.382Z,188.00
2022-09-26T07:14:53.726Z,192.00
2022-09-26T07:15:52.430Z,192.00
2022-09-26T07:16:52.566Z,200.00
2022-09-26T07:17:52.386Z,200.00
2022-09-26T07:18:52.369Z,200.00
2022-09-26T07:19:52.376Z,196.00
2022-09-26T07:20:56.624Z,188.00
2022-09-26T07:21:52.363Z,188.00
2022-09-26T07:22:52.358Z,184.00
2022-09-26T07:23:52.362Z,184.00
2022-09-26T07:24:52.365Z,184.00
2022-09-26T07:25:52.372Z,192.00
2022-09-26T07:26:52.351Z,196.00
2022-09-26T07:27:52.359Z,196.00
2022-09-26T07:28:54.876Z,200.00
2022-09-26T07:29:52.348Z,196.00
2022-09-26T07:30:52.346Z,192.00
2022-09-26T07:31:52.413Z,188.00
2022-09-26T07:32:52.365Z,188.00
2022-09-26T07:33:52.340Z,184.00
2022-09-26T07:34:52.363Z,184.00
2022-09-26T07:35:52.340Z,176.00
2022-09-26T07:36:52.355Z,176.00
2022-09-26T07:37:52.339Z,176.00
2022-09-26T07:38:52.332Z,172.00
2022-09-26T07:39:54.189Z,172.00
2022-09-26T07:40:52.382Z,168.00
2022-09-26T07:41:52.321Z,156.00
2022-09-26T07:43:15.435Z,148.00
2022-09-26T07:45:21.929Z,148.00
2022-09-26T07:45:52.305Z,144.00
2022-09-26T07:46:52.402Z,144.00
2022-09-26T07:47:52.307Z,148.00
2022-09-26T07:48:52.307Z,144.00
2022-09-26T07:49:52.302Z,148.00
2022-09-26T07:50:52.296Z,148.00
2022-09-26T07:51:52.298Z,140.00
2022-09-26T07:52:52.323Z,140.00
2022-09-26T07:53:52.304Z,140.00
2022-09-26T07:54:52.312Z,128.00
2022-09-26T07:55:52.279Z,128.00
2022-09-26T07:56:52.286Z,136.00
2022-09-26T07:57:52.277Z,140.00
2022-09-26T07:58:52.291Z,144.00
2022-09-26T07:59:52.287Z,152.00
2022-09-26T08:00:52.304Z,156.00
2022-09-26T08:01:52.385Z,144.00
2022-09-26T08:02:52.331Z,140.00
2022-09-26T08:03:52.280Z,136.00
2022-09-26T08:04:52.271Z,132.00
2022-09-26T08:05:52.259Z,128.00
2022-09-26T08:06:52.261Z,132.00
2022-09-26T08:07:52.256Z,128.00
2022-09-26T08:08:52.360Z,124.00
2022-09-26T08:09:52.263Z,128.00
2022-09-26T08:10:52.248Z,112.00
2022-09-26T08:11:52.252Z,108.00
2022-09-26T08:12:52.248Z,116.00
2022-09-26T08:13:52.245Z,132.00
2022-09-26T08:14:52.245Z,156.00
2022-09-26T08:15:52.272Z,180.00
2022-09-26T08:16:52.245Z,196.00
2022-09-26T08:17:52.233Z,192.00
2022-09-26T08:18:52.299Z,188.00
2022-09-26T08:19:52.225Z,180.00
2022-09-26T08:20:52.236Z,172.00
2022-09-26T08:21:52.224Z,172.00
2022-09-26T08:22:52.223Z,164.00
2022-09-26T08:23:52.230Z,148.00
2022-09-26T08:24:52.247Z,140.00
2022-09-26T08:25:52.226Z,140.00
2022-09-26T08:26:52.220Z,140.00
2022-09-26T08:27:52.211Z,144.00
2022-09-26T08:28:52.279Z,152.00
2022-09-26T08:29:52.206Z,152.00
2022-09-26T08:30:52.262Z,140.00
2022-09-26T08:31:52.254Z,136.00
2022-09-26T08:32:52.205Z,136.00
2022-09-26T08:33:52.193Z,148.00
2022-09-26T08:34:52.199Z,160.00
2022-09-26T08:35:52.203Z,172.00
2022-09-26T08:36:52.182Z,180.00
2022-09-26T08:37:52.188Z,164.00
2022-09-26T08:38:52.325Z,152.00
2022-09-26T08:39:52.185Z,164.00
2022-09-26T08:40:52.293Z,168.00
2022-09-26T08:41:52.181Z,180.00
2022-09-26T08:42:52.193Z,180.00
2022-09-26T08:43:52.167Z,184.00
2022-09-26T08:44:52.164Z,176.00
2022-09-26T08:45:52.171Z,188.00
2022-09-26T08:46:52.253Z,200.00
2022-09-26T08:47:52.179Z,204.00
2022-09-26T08:48:52.154Z,200.00
2022-09-26T08:49:52.163Z,200.00
2022-09-26T08:50:52.164Z,196.00
2022-09-26T08:51:52.158Z,192.00
2022-09-26T08:52:52.157Z,192.00
2022-09-26T08:53:52.152Z,184.00
2022-09-26T08:54:52.147Z,168.00
2022-09-26T08:55:52.139Z,156.00
2022-09-26T08:56:52.155Z,144.00
2022-09-26T08:57:52.146Z,156.00
2022-09-26T08:58:52.143Z,164.00
2022-09-26T08:59:52.137Z,172.00
2022-09-26T09:00:52.125Z,176.00
2022-09-26T09:01:52.287Z,168.00
2022-09-26T09:02:52.220Z,160.00
2022-09-26T09:03:52.146Z,160.00
2022-09-26T09:04:54.080Z,152.00
2022-09-26T09:05:52.122Z,148.00
2022-09-26T09:06:52.136Z,148.00
2022-09-26T09:07:52.113Z,152.00
2022-09-26T09:08:52.123Z,152.00
2022-09-26T09:09:52.109Z,168.00
2022-09-26T09:10:52.117Z,172.00
2022-09-26T09:11:52.110Z,168.00
2022-09-26T09:12:52.112Z,160.00
2022-09-26T09:13:52.104Z,152.00
2022-09-26T09:15:07.922Z,148.00
2022-09-26T09:15:52.128Z,148.00
2022-09-26T09:16:52.093Z,140.00
2022-09-26T09:17:52.098Z,140.00
2022-09-26T09:18:52.091Z,136.00
2022-09-26T09:19:52.092Z,144.00
2022-09-26T09:20:52.087Z,148.00
2022-09-26T09:21:52.075Z,148.00
2022-09-26T09:22:52.090Z,164.00
2022-09-26T09:23:52.066Z,172.00
2022-09-26T09:24:52.074Z,180.00
2022-09-26T09:25:52.169Z,176.00
2022-09-26T09:27:52.719Z,180.00
2022-09-26T09:28:52.100Z,172.00
2022-09-26T09:29:52.076Z,168.00
2022-09-26T09:30:52.149Z,140.00
2022-09-26T09:31:52.047Z,132.00
2022-09-26T09:32:52.049Z,136.00
2022-09-26T09:33:52.054Z,136.00
2022-09-26T09:34:53.943Z,132.00
2022-09-26T09:35:52.058Z,140.00
2022-09-26T09:36:52.035Z,148.00
2022-09-26T09:37:52.045Z,156.00
2022-09-26T09:38:52.033Z,164.00
2022-09-26T09:39:52.037Z,176.00
2022-09-26T09:40:52.127Z,184.00
2022-09-26T09:41:52.042Z,192.00
2022-09-26T09:42:52.026Z,216.00
2022-09-26T09:43:52.030Z,204.00
2022-09-26T09:44:52.056Z,188.00
2022-09-26T09:45:52.019Z,188.00
2022-09-26T09:46:52.087Z,188.00
2022-09-26T09:47:52.007Z,188.00
2022-09-26T09:48:52.011Z,184.00
2022-09-26T09:49:52.015Z,180.00
2022-09-26T09:50:52.010Z,180.00
2022-09-26T09:51:52.018Z,200.00
2022-09-26T09:52:52.001Z,212.00
2022-09-26T09:53:51.998Z,236.00
2022-09-26T09:54:51.989Z,228.00
2022-09-26T09:55:51.994Z,196.00
2022-09-26T09:56:51.991Z,160.00
2022-09-26T09:57:51.999Z,156.00
2022-09-26T09:58:51.980Z,140.00
2022-09-26T09:59:51.978Z,132.00
2022-09-26T10:00:52.002Z,136.00
2022-09-26T10:01:51.997Z,136.00
2022-09-26T10:02:52.044Z,140.00
2022-09-26T10:03:51.973Z,148.00
2022-09-26T10:04:51.978Z,160.00
2022-09-26T10:05:51.978Z,152.00
2022-09-26T10:06:51.966Z,128.00
2022-09-26T10:07:51.966Z,136.00
2022-09-26T10:08:51.962Z,136.00
2022-09-26T10:09:51.974Z,128.00
2022-09-26T10:10:51.953Z,140.00
2022-09-26T10:11:52.730Z,164.00
2022-09-26T10:12:51.964Z,164.00
2022-09-26T10:13:51.962Z,192.00
2022-09-26T10:14:51.945Z,216.00
2022-09-26T10:15:51.977Z,200.00
2022-09-26T10:16:51.968Z,184.00
2022-09-26T10:18:12.782Z,188.00
2022-09-26T10:18:51.938Z,172.00
2022-09-26T10:19:51.927Z,216.00
2022-09-26T10:20:51.928Z,260.00
2022-09-26T10:21:51.931Z,284.00
2022-09-26T10:22:51.930Z,276.00
2022-09-26T10:23:51.937Z,260.00
2022-09-26T10:24:51.916Z,256.00
2022-09-26T10:25:51.929Z,272.00
2022-09-26T10:26:51.915Z,264.00
2022-09-26T10:27:51.920Z,264.00
2022-09-26T10:28:51.905Z,264.00
2022-09-26T10:29:51.912Z,256.00
2022-09-26T10:30:51.930Z,240.00
2022-09-26T10:31:52.022Z,236.00
2022-09-26T10:32:56.313Z,260.00
2022-09-26T10:33:51.893Z,256.00
2022-09-26T10:34:51.904Z,260.00
2022-09-26T10:35:51.892Z,280.00
2022-09-26T10:36:51.893Z,316.00
2022-09-26T10:37:51.887Z,264.00
2022-09-26T10:38:51.890Z,292.00
2022-09-26T10:39:51.883Z,288.00
2022-09-26T10:40:51.995Z,260.00
2022-09-26T10:41:51.878Z,232.00
2022-09-26T10:42:51.875Z,252.00
2022-09-26T10:43:51.888Z,244.00
2022-09-26T10:44:51.879Z,220.00
2022-09-26T10:46:33.812Z,228.00
2022-09-26T10:47:33.727Z,232.00
2022-09-26T10:48:33.760Z,248.00
2022-09-26T10:49:33.725Z,268.00
2022-09-26T10:50:33.745Z,232.00
2022-09-26T10:51:33.720Z,224.00
2022-09-26T10:52:33.719Z,208.00
2022-09-26T10:53:33.730Z,200.00
2022-09-26T10:54:33.728Z,216.00
2022-09-26T10:55:33.711Z,232.00
2022-09-26T10:56:33.715Z,264.00
2022-09-26T10:57:33.702Z,280.00
2022-09-26T10:58:33.709Z,300.00
2022-09-26T10:59:33.709Z,312.00
2022-09-26T11:00:33.714Z,316.00
2022-09-26T11:01:33.756Z,316.00
2022-09-26T11:02:33.692Z,360.00
2022-09-26T11:03:33.762Z,380.00
2022-09-26T11:04:33.748Z,408.00
2022-09-26T11:05:33.720Z,424.00
2022-09-26T11:06:33.694Z,432.00
2022-09-26T11:07:33.686Z,432.00
2022-09-26T11:08:33.686Z,420.00
2022-09-26T11:09:33.680Z,404.00
2022-09-26T11:10:33.674Z,360.00
2022-09-26T11:11:33.679Z,300.00
2022-09-26T11:12:33.672Z,256.00
2022-09-26T11:13:33.663Z,252.00
2022-09-26T11:14:33.666Z,264.00
2022-09-26T11:15:33.674Z,300.00
2022-09-26T11:16:37.163Z,328.00
2022-09-26T11:17:33.661Z,332.00
2022-09-26T11:18:33.660Z,316.00
2022-09-26T11:19:33.656Z,276.00
2022-09-26T11:20:33.677Z,260.00
2022-09-26T11:21:33.649Z,276.00
2022-09-26T11:22:33.649Z,304.00
2022-09-26T11:23:33.645Z,324.00
2022-09-26T11:24:33.643Z,328.00
2022-09-26T11:25:35.710Z,320.00
2022-09-26T11:26:33.659Z,304.00
2022-09-26T11:27:33.642Z,284.00
2022-09-26T11:28:33.638Z,280.00
2022-09-26T11:29:33.623Z,276.00
2022-09-26T11:30:33.635Z,276.00
2022-09-26T11:31:33.668Z,276.00
2022-09-26T11:32:33.629Z,280.00
2022-09-26T11:33:33.628Z,288.00
2022-09-26T11:34:33.615Z,308.00
2022-09-26T11:35:33.634Z,328.00
2022-09-26T11:36:33.643Z,348.00
2022-09-26T11:37:33.613Z,364.00
2022-09-26T11:38:33.608Z,388.00
2022-09-26T11:39:33.600Z,396.00
2022-09-26T11:40:33.686Z,392.00
2022-09-26T11:41:33.599Z,396.00
2022-09-26T11:42:33.601Z,396.00
2022-09-26T11:43:33.590Z,396.00
2022-09-26T11:44:33.594Z,400.00
2022-09-26T11:45:38.634Z,404.00
2022-09-26T11:46:33.651Z,404.00
2022-09-26T11:47:33.588Z,408.00
2022-09-26T11:48:33.608Z,420.00
2022-09-26T11:49:33.573Z,412.00
2022-09-26T11:50:33.579Z,400.00
2022-09-26T11:51:33.571Z,384.00
2022-09-26T11:52:33.616Z,384.00
2022-09-26T11:53:33.565Z,388.00
2022-09-26T11:54:33.576Z,396.00
2022-09-26T11:55:33.566Z,396.00
2022-09-26T11:56:33.568Z,396.00
2022-09-26T11:57:33.564Z,388.00
2022-09-26T11:58:33.579Z,388.00
2022-09-26T11:59:33.550Z,376.00
2022-09-26T12:00:33.551Z,364.00
2022-09-26T12:01:33.548Z,360.00
2022-09-26T12:02:33.657Z,356.00
2022-09-26T12:03:33.770Z,344.00
2022-09-26T12:04:33.539Z,328.00
2022-09-26T12:05:33.537Z,320.00
2022-09-26T12:06:33.669Z,316.00
2022-09-26T12:07:33.540Z,304.00
2022-09-26T12:08:33.556Z,296.00
2022-09-26T12:09:33.524Z,296.00
2022-09-26T12:10:33.523Z,284.00
2022-09-26T12:11:33.518Z,276.00
2022-09-26T12:12:38.233Z,276.00
2022-09-26T12:13:33.520Z,272.00
2022-09-26T12:14:33.523Z,276.00
2022-09-26T12:15:33.591Z,276.00
2022-09-26T12:16:33.569Z,272.00
2022-09-26T12:17:33.516Z,264.00
2022-09-26T12:18:33.505Z,256.00
2022-09-26T12:19:33.519Z,252.00
2022-09-26T12:20:33.505Z,252.00
2022-09-26T12:21:33.503Z,256.00
2022-09-26T12:22:33.489Z,240.00
2022-09-26T12:23:33.500Z,244.00
2022-09-26T12:24:33.508Z,232.00
2022-09-26T12:25:33.487Z,220.00
2022-09-26T12:26:33.488Z,192.00
2022-09-26T12:27:33.496Z,192.00
2022-09-26T12:28:33.486Z,204.00
2022-09-26T12:29:33.490Z,196.00
2022-09-26T12:30:33.483Z,188.00
2022-09-26T12:31:33.543Z,188.00
2022-09-26T12:32:33.475Z,168.00
2022-09-26T12:33:33.475Z,164.00
2022-09-26T12:34:33.466Z,160.00
2022-09-26T12:35:33.464Z,148.00
2022-09-26T12:36:33.460Z,140.00
2022-09-26T12:37:33.484Z,140.00
2022-09-26T12:38:33.455Z,148.00
2022-09-26T12:39:33.458Z,160.00
2022-09-26T12:40:33.557Z,164.00
2022-09-26T12:41:33.453Z,168.00
2022-09-26T12:42:33.447Z,168.00
2022-09-26T12:43:33.463Z,176.00
2022-09-26T12:44:33.433Z,180.00
2022-09-26T12:45:33.448Z,180.00
2022-09-26T12:46:33.536Z,164.00
2022-09-26T12:47:33.433Z,156.00
2022-09-26T12:48:33.439Z,160.00
2022-09-26T12:49:33.439Z,160.00
2022-09-26T12:50:33.430Z,168.00
2022-09-26T12:51:33.421Z,176.00
2022-09-26T12:52:33.432Z,176.00
2022-09-26T12:53:33.418Z,176.00
2022-09-26T12:54:33.419Z,164.00
2022-09-26T12:55:33.408Z,168.00
2022-09-26T12:56:33.438Z,168.00